JAL904 ROAH-RJTT
Flight info
| Callsign | JAL904 |
|---|---|
| Flight time | 2h 6m |
| Altitude | 41000 |
| Route | ESKOB3 AMAMI Y574 SHIBK Y57 SUKBO Y571 BILLY Y21 AKSEL AKSE1A |
| Aircraft | A359/H-SDE2E3FGHIJ4J5M1RWXYZ/LB2D1 |
Departure
| Time | 2026-04-30 02:01 |
|---|---|
| Airport | Naha International Airport (ROAH) |
Arrival
| Time | 2026-04-30 04:08 |
|---|---|
| Airport | Tokyo Haneda International Airport (RJTT) |
| Time | Latitude | Longitude | Altitude | Speed | Heading |
|---|---|---|---|---|---|
| 2026-04-30 01:39 | 26.20564 | 127.64926 | 28 ft | 0 kts | 148° |
| 2026-04-30 01:52 | 26.20566 | 127.64925 | 27 ft | 2 kts | 148° |
| 2026-04-30 01:52 | 26.20588 | 127.64910 | 27 ft | 3 kts | 148° |
| 2026-04-30 01:52 | 26.20609 | 127.64893 | 25 ft | 4 kts | 135° |
| 2026-04-30 01:52 | 26.20625 | 127.64870 | 26 ft | 3 kts | 115° |
| 2026-04-30 01:53 | 26.20632 | 127.64842 | 31 ft | 3 kts | 91° |
| 2026-04-30 01:53 | 26.20633 | 127.64812 | 30 ft | 4 kts | 98° |
| 2026-04-30 01:53 | 26.20640 | 127.64785 | 30 ft | 3 kts | 118° |
| 2026-04-30 01:53 | 26.20656 | 127.64760 | 30 ft | 4 kts | 142° |
| 2026-04-30 01:54 | 26.20678 | 127.64746 | 29 ft | 5 kts | 163° |
| 2026-04-30 01:54 | 26.20704 | 127.64741 | 27 ft | 3 kts | 177° |
| 2026-04-30 01:54 | 26.20726 | 127.64740 | 27 ft | 5 kts | 177° |
| 2026-04-30 01:54 | 26.20741 | 127.64739 | 29 ft | 5 kts | 177° |
| 2026-04-30 01:59 | 26.20726 | 127.64740 | 26 ft | 4 kts | 176° |
| 2026-04-30 01:59 | 26.20679 | 127.64742 | 28 ft | 9 kts | 181° |
| 2026-04-30 01:59 | 26.20631 | 127.64691 | 22 ft | 12 kts | 258° |
| 2026-04-30 02:00 | 26.20624 | 127.64604 | 24 ft | 10 kts | 268° |
| 2026-04-30 02:00 | 26.20601 | 127.64546 | 29 ft | 7 kts | 203° |
| 2026-04-30 02:00 | 26.20544 | 127.64542 | 28 ft | 8 kts | 178° |
| 2026-04-30 02:00 | 26.20538 | 127.64543 | 28 ft | 0 kts | 177° |
| 2026-04-30 02:01 | 26.20493 | 127.64545 | 28 ft | 30 kts | 177° |
| 2026-04-30 02:01 | 26.19991 | 127.64567 | 25 ft | 119 kts | 178° |
| 2026-04-30 02:01 | 26.18931 | 127.64622 | 447 ft | 162 kts | 179° |
| 2026-04-30 02:01 | 26.17780 | 127.64706 | 1056 ft | 176 kts | 182° |
| 2026-04-30 02:02 | 26.16526 | 127.64831 | 1585 ft | 183 kts | 179° |
| 2026-04-30 02:02 | 26.15210 | 127.64948 | 1983 ft | 199 kts | 183° |
| 2026-04-30 02:02 | 26.13802 | 127.64965 | 2023 ft | 204 kts | 185° |
| 2026-04-30 02:02 | 26.12457 | 127.64987 | 1983 ft | 191 kts | 183° |
| 2026-04-30 02:03 | 26.11178 | 127.65037 | 2239 ft | 169 kts | 184° |
| 2026-04-30 02:03 | 26.10009 | 127.65078 | 2424 ft | 172 kts | 185° |
| 2026-04-30 02:03 | 26.08777 | 127.65114 | 2666 ft | 188 kts | 184° |
| 2026-04-30 02:03 | 26.07415 | 127.65162 | 3155 ft | 198 kts | 184° |
| 2026-04-30 02:04 | 26.06000 | 127.65223 | 3715 ft | 208 kts | 183° |
| 2026-04-30 02:04 | 26.04536 | 127.65315 | 4358 ft | 215 kts | 179° |
| 2026-04-30 02:04 | 26.03081 | 127.65797 | 4982 ft | 228 kts | 159° |
| 2026-04-30 02:04 | 26.01811 | 127.66918 | 5611 ft | 242 kts | 136° |
| 2026-04-30 02:05 | 26.00978 | 127.68591 | 6264 ft | 255 kts | 112° |
| 2026-04-30 02:05 | 26.00808 | 127.70591 | 6859 ft | 267 kts | 87° |
| 2026-04-30 02:05 | 26.01037 | 127.72696 | 7373 ft | 281 kts | 87° |
| 2026-04-30 02:05 | 26.01584 | 127.74842 | 7781 ft | 301 kts | 60° |
| 2026-04-30 02:06 | 26.02756 | 127.76469 | 8190 ft | 313 kts | 42° |
| 2026-04-30 02:06 | 26.04520 | 127.78163 | 8673 ft | 320 kts | 43° |
| 2026-04-30 02:06 | 26.05786 | 127.80149 | 9133 ft | 322 kts | 63° |
| 2026-04-30 02:06 | 26.06936 | 127.82288 | 9673 ft | 324 kts | 50° |
| 2026-04-30 02:07 | 26.08478 | 127.84180 | 10307 ft | 335 kts | 46° |
| 2026-04-30 02:07 | 26.10025 | 127.86226 | 10826 ft | 350 kts | 51° |
| 2026-04-30 02:07 | 26.11554 | 127.88359 | 11211 ft | 365 kts | 50° |
| 2026-04-30 02:07 | 26.13188 | 127.90610 | 11608 ft | 379 kts | 50° |
| 2026-04-30 02:08 | 26.14863 | 127.92911 | 12130 ft | 388 kts | 50° |
| 2026-04-30 02:08 | 26.16661 | 127.95215 | 12654 ft | 395 kts | 43° |
| 2026-04-30 02:08 | 26.18833 | 127.97062 | 13167 ft | 398 kts | 27° |
| 2026-04-30 02:08 | 26.21260 | 127.98454 | 13809 ft | 399 kts | 22° |
| 2026-04-30 02:09 | 26.23774 | 127.99923 | 14408 ft | 404 kts | 30° |
| 2026-04-30 02:09 | 26.26101 | 128.01733 | 14949 ft | 408 kts | 31° |
| 2026-04-30 02:09 | 26.28410 | 128.03388 | 15437 ft | 413 kts | 29° |
| 2026-04-30 02:09 | 26.30946 | 128.05150 | 16299 ft | 413 kts | 29° |
| 2026-04-30 02:10 | 26.33312 | 128.06781 | 16713 ft | 420 kts | 28° |
| 2026-04-30 02:10 | 26.35818 | 128.08496 | 17205 ft | 424 kts | 28° |
| 2026-04-30 02:10 | 26.38339 | 128.10215 | 17761 ft | 427 kts | 28° |
| 2026-04-30 02:10 | 26.40900 | 128.11958 | 18320 ft | 429 kts | 28° |
| 2026-04-30 02:11 | 26.43508 | 128.13729 | 18782 ft | 433 kts | 28° |
| 2026-04-30 02:11 | 26.46094 | 128.15485 | 19181 ft | 438 kts | 28° |
| 2026-04-30 02:11 | 26.48681 | 128.17242 | 19595 ft | 442 kts | 28° |
| 2026-04-30 02:11 | 26.51329 | 128.19041 | 19998 ft | 447 kts | 28° |
| 2026-04-30 02:12 | 26.53986 | 128.20847 | 20490 ft | 449 kts | 28° |
| 2026-04-30 02:12 | 26.56673 | 128.22675 | 20969 ft | 452 kts | 28° |
| 2026-04-30 02:12 | 26.59363 | 128.24505 | 21404 ft | 455 kts | 28° |
| 2026-04-30 02:12 | 26.62072 | 128.26349 | 21852 ft | 458 kts | 28° |
| 2026-04-30 02:13 | 26.64770 | 128.28187 | 22298 ft | 461 kts | 28° |
| 2026-04-30 02:13 | 26.67517 | 128.30174 | 22737 ft | 466 kts | 34° |
| 2026-04-30 02:13 | 26.69928 | 128.32651 | 23100 ft | 475 kts | 47° |
| 2026-04-30 02:13 | 26.71988 | 128.35476 | 23513 ft | 479 kts | 50° |
| 2026-04-30 02:14 | 26.74051 | 128.38411 | 23864 ft | 482 kts | 50° |
| 2026-04-30 02:14 | 26.76138 | 128.41359 | 24205 ft | 485 kts | 50° |
| 2026-04-30 02:14 | 26.78240 | 128.44323 | 24600 ft | 487 kts | 50° |
| 2026-04-30 02:14 | 26.80343 | 128.47287 | 25008 ft | 490 kts | 50° |
| 2026-04-30 02:15 | 26.82476 | 128.50294 | 25407 ft | 493 kts | 50° |
| 2026-04-30 02:15 | 26.84611 | 128.53306 | 25808 ft | 497 kts | 50° |
| 2026-04-30 02:15 | 26.86769 | 128.56351 | 26149 ft | 502 kts | 50° |
| 2026-04-30 02:15 | 26.88907 | 128.59369 | 26571 ft | 505 kts | 50° |
| 2026-04-30 02:16 | 26.91119 | 128.62467 | 27038 ft | 506 kts | 48° |
| 2026-04-30 02:16 | 26.93568 | 128.65273 | 27416 ft | 506 kts | 36° |
| 2026-04-30 02:16 | 26.96422 | 128.67424 | 27858 ft | 501 kts | 24° |
| 2026-04-30 02:16 | 26.99570 | 128.69102 | 28358 ft | 499 kts | 19° |
| 2026-04-30 02:17 | 27.02735 | 128.70882 | 28731 ft | 508 kts | 28° |
| 2026-04-30 02:17 | 27.05719 | 128.73029 | 29015 ft | 512 kts | 26° |
| 2026-04-30 02:17 | 27.08877 | 128.74927 | 29352 ft | 515 kts | 24° |
| 2026-04-30 02:17 | 27.12035 | 128.76850 | 29713 ft | 518 kts | 25° |
| 2026-04-30 02:18 | 27.15205 | 128.78792 | 30070 ft | 521 kts | 24° |
| 2026-04-30 02:18 | 27.18391 | 128.80739 | 30357 ft | 524 kts | 24° |
| 2026-04-30 02:18 | 27.20509 | 128.82031 | 30561 ft | 526 kts | 24° |
| 2026-04-30 02:18 | 27.24799 | 128.84647 | 30875 ft | 532 kts | 24° |
| 2026-04-30 02:19 | 27.28078 | 128.86645 | 31154 ft | 535 kts | 24° |
| 2026-04-30 02:19 | 27.31331 | 128.88635 | 31456 ft | 537 kts | 25° |
| 2026-04-30 02:19 | 27.33472 | 128.90104 | 31637 ft | 541 kts | 31° |
| 2026-04-30 02:19 | 27.36449 | 128.92692 | 32057 ft | 543 kts | 37° |
| 2026-04-30 02:20 | 27.39308 | 128.95501 | 32311 ft | 546 kts | 39° |
| 2026-04-30 02:20 | 27.43025 | 128.99381 | 32524 ft | 553 kts | 41° |
| 2026-04-30 02:20 | 27.44864 | 129.01345 | 32623 ft | 555 kts | 41° |
| 2026-04-30 02:20 | 27.47652 | 129.04340 | 32967 ft | 555 kts | 41° |
| 2026-04-30 02:21 | 27.50472 | 129.07367 | 33423 ft | 553 kts | 41° |
| 2026-04-30 02:21 | 27.53262 | 129.10345 | 33758 ft | 553 kts | 41° |
| 2026-04-30 02:21 | 27.56068 | 129.13327 | 34078 ft | 551 kts | 41° |
| 2026-04-30 02:21 | 27.58814 | 129.16238 | 34632 ft | 544 kts | 41° |
| 2026-04-30 02:22 | 27.61581 | 129.19170 | 34971 ft | 543 kts | 41° |
| 2026-04-30 02:22 | 27.64348 | 129.22100 | 35208 ft | 544 kts | 41° |
| 2026-04-30 02:22 | 27.67114 | 129.25030 | 35472 ft | 543 kts | 41° |
| 2026-04-30 02:22 | 27.69807 | 129.27887 | 35742 ft | 543 kts | 41° |
| 2026-04-30 02:23 | 27.72611 | 129.30864 | 36020 ft | 542 kts | 41° |
| 2026-04-30 02:23 | 27.75328 | 129.33751 | 36274 ft | 543 kts | 41° |
| 2026-04-30 02:23 | 27.78121 | 129.36721 | 36371 ft | 546 kts | 41° |
| 2026-04-30 02:23 | 27.80868 | 129.39645 | 36761 ft | 542 kts | 41° |
| 2026-04-30 02:24 | 27.83604 | 129.42562 | 37063 ft | 540 kts | 41° |
| 2026-04-30 02:24 | 27.86313 | 129.45450 | 37285 ft | 540 kts | 41° |
| 2026-04-30 02:24 | 27.89074 | 129.48396 | 37510 ft | 540 kts | 41° |
| 2026-04-30 02:24 | 27.91785 | 129.51289 | 37756 ft | 540 kts | 41° |
| 2026-04-30 02:25 | 27.94516 | 129.54207 | 37862 ft | 542 kts | 41° |
| 2026-04-30 02:25 | 27.97259 | 129.57139 | 38010 ft | 543 kts | 41° |
| 2026-04-30 02:25 | 28.00003 | 129.60075 | 38318 ft | 540 kts | 41° |
| 2026-04-30 02:25 | 28.02719 | 129.62985 | 38668 ft | 536 kts | 41° |
| 2026-04-30 02:26 | 28.05439 | 129.65901 | 38834 ft | 536 kts | 41° |
| 2026-04-30 02:26 | 28.08134 | 129.68790 | 39002 ft | 536 kts | 41° |
| 2026-04-30 02:26 | 28.10836 | 129.71689 | 39076 ft | 538 kts | 41° |
| 2026-04-30 02:27 | 28.16268 | 129.77521 | 39294 ft | 539 kts | 41° |
| 2026-04-30 02:27 | 28.19018 | 129.80480 | 39466 ft | 538 kts | 41° |
| 2026-04-30 02:27 | 28.21732 | 129.83402 | 39727 ft | 534 kts | 41° |
| 2026-04-30 02:27 | 28.24387 | 129.86264 | 39956 ft | 532 kts | 41° |
| 2026-04-30 02:28 | 28.27075 | 129.89161 | 40041 ft | 533 kts | 41° |
| 2026-04-30 02:28 | 28.32470 | 129.94979 | 40188 ft | 535 kts | 41° |
| 2026-04-30 02:28 | 28.35169 | 129.97894 | 40339 ft | 534 kts | 41° |
| 2026-04-30 02:29 | 28.37852 | 130.00796 | 40467 ft | 533 kts | 40° |
| 2026-04-30 02:29 | 28.40528 | 130.03691 | 40576 ft | 533 kts | 40° |
| 2026-04-30 02:29 | 28.43223 | 130.06609 | 40765 ft | 532 kts | 40° |
| 2026-04-30 02:30 | 28.48578 | 130.12427 | 40871 ft | 534 kts | 41° |
| 2026-04-30 02:30 | 28.53222 | 130.19003 | 40942 ft | 538 kts | 52° |
| 2026-04-30 02:31 | 28.57519 | 130.26028 | 40940 ft | 538 kts | 53° |
| 2026-04-30 02:31 | 28.61714 | 130.33019 | 40939 ft | 537 kts | 53° |
| 2026-04-30 02:32 | 28.65929 | 130.40031 | 40938 ft | 537 kts | 53° |
| 2026-04-30 02:32 | 28.70143 | 130.47027 | 40938 ft | 537 kts | 53° |
| 2026-04-30 02:33 | 28.74401 | 130.54101 | 40938 ft | 537 kts | 53° |
| 2026-04-30 02:33 | 28.78614 | 130.61091 | 40936 ft | 537 kts | 53° |
| 2026-04-30 02:34 | 28.82823 | 130.68100 | 40937 ft | 537 kts | 53° |
| 2026-04-30 02:34 | 28.87070 | 130.75181 | 40937 ft | 538 kts | 53° |
| 2026-04-30 02:35 | 28.91304 | 130.82252 | 40943 ft | 541 kts | 54° |
| 2026-04-30 02:35 | 28.95533 | 130.89328 | 40941 ft | 541 kts | 54° |
| 2026-04-30 02:36 | 28.99783 | 130.96452 | 40924 ft | 539 kts | 54° |
| 2026-04-30 02:36 | 29.03977 | 131.03492 | 40933 ft | 541 kts | 54° |
| 2026-04-30 02:37 | 29.08219 | 131.10623 | 40937 ft | 542 kts | 54° |
| 2026-04-30 02:37 | 29.12470 | 131.17785 | 40946 ft | 541 kts | 53° |
| 2026-04-30 02:38 | 29.16653 | 131.24844 | 40945 ft | 539 kts | 53° |
| 2026-04-30 02:38 | 29.20867 | 131.31966 | 40927 ft | 539 kts | 54° |
| 2026-04-30 02:39 | 29.25070 | 131.39081 | 40939 ft | 538 kts | 53° |
| 2026-04-30 02:39 | 29.29250 | 131.46169 | 40950 ft | 538 kts | 53° |
| 2026-04-30 02:40 | 29.33453 | 131.53309 | 40931 ft | 539 kts | 54° |
| 2026-04-30 02:40 | 29.37630 | 131.60416 | 40917 ft | 538 kts | 53° |
| 2026-04-30 02:41 | 29.41822 | 131.67558 | 40933 ft | 538 kts | 53° |
| 2026-04-30 02:41 | 29.45976 | 131.74663 | 40936 ft | 541 kts | 53° |
| 2026-04-30 02:42 | 29.50167 | 131.81843 | 40934 ft | 540 kts | 53° |
| 2026-04-30 02:42 | 29.54336 | 131.88995 | 40937 ft | 540 kts | 53° |
| 2026-04-30 02:43 | 29.58531 | 131.96202 | 40934 ft | 541 kts | 53° |
| 2026-04-30 02:43 | 29.62708 | 132.03391 | 40934 ft | 541 kts | 53° |
| 2026-04-30 02:44 | 29.67116 | 132.10394 | 40936 ft | 538 kts | 47° |
| 2026-04-30 02:44 | 29.71843 | 132.17069 | 40940 ft | 540 kts | 47° |
| 2026-04-30 02:45 | 29.76608 | 132.23755 | 40937 ft | 540 kts | 47° |
| 2026-04-30 02:45 | 29.81348 | 132.30412 | 40941 ft | 540 kts | 47° |
| 2026-04-30 02:46 | 29.86105 | 132.37106 | 40941 ft | 541 kts | 47° |
| 2026-04-30 02:46 | 29.90867 | 132.43823 | 40931 ft | 541 kts | 47° |
| 2026-04-30 02:47 | 29.95624 | 132.50546 | 40935 ft | 541 kts | 47° |
| 2026-04-30 02:47 | 30.00366 | 132.57255 | 40936 ft | 542 kts | 47° |
| 2026-04-30 02:48 | 30.05134 | 132.64015 | 40937 ft | 542 kts | 47° |
| 2026-04-30 02:48 | 30.09908 | 132.70793 | 40941 ft | 544 kts | 47° |
| 2026-04-30 02:49 | 30.14673 | 132.77569 | 40938 ft | 546 kts | 47° |
| 2026-04-30 02:49 | 30.19464 | 132.84396 | 40937 ft | 546 kts | 47° |
| 2026-04-30 02:50 | 30.24227 | 132.91195 | 40955 ft | 548 kts | 47° |
| 2026-04-30 02:50 | 30.29027 | 132.98057 | 40952 ft | 548 kts | 47° |
| 2026-04-30 02:51 | 30.33811 | 133.04910 | 40943 ft | 548 kts | 47° |
| 2026-04-30 02:51 | 30.38603 | 133.11786 | 40944 ft | 547 kts | 47° |
| 2026-04-30 02:52 | 30.43359 | 133.18623 | 40943 ft | 547 kts | 47° |
| 2026-04-30 02:52 | 30.48149 | 133.25516 | 40945 ft | 546 kts | 47° |
| 2026-04-30 02:53 | 30.52909 | 133.32381 | 40968 ft | 545 kts | 47° |
| 2026-04-30 02:53 | 30.57636 | 133.39209 | 40953 ft | 545 kts | 47° |
| 2026-04-30 02:54 | 30.62381 | 133.46076 | 40958 ft | 543 kts | 47° |
| 2026-04-30 02:54 | 30.67099 | 133.52917 | 40956 ft | 541 kts | 47° |
| 2026-04-30 02:55 | 30.71776 | 133.59707 | 40974 ft | 541 kts | 47° |
| 2026-04-30 02:55 | 30.76487 | 133.66559 | 40954 ft | 542 kts | 47° |
| 2026-04-30 02:56 | 30.81180 | 133.73398 | 40962 ft | 542 kts | 47° |
| 2026-04-30 02:56 | 30.85872 | 133.80242 | 40984 ft | 543 kts | 47° |
| 2026-04-30 02:57 | 30.90601 | 133.87151 | 40980 ft | 544 kts | 47° |
| 2026-04-30 02:57 | 30.95301 | 133.94032 | 40988 ft | 545 kts | 47° |
| 2026-04-30 02:58 | 31.00046 | 134.00991 | 40999 ft | 546 kts | 47° |
| 2026-04-30 02:58 | 31.04757 | 134.07912 | 41004 ft | 546 kts | 47° |
| 2026-04-30 02:59 | 31.09482 | 134.14867 | 41017 ft | 546 kts | 47° |
| 2026-04-30 02:59 | 31.14191 | 134.21809 | 41012 ft | 548 kts | 47° |
| 2026-04-30 03:00 | 31.18915 | 134.28785 | 41018 ft | 548 kts | 47° |
| 2026-04-30 03:00 | 31.23622 | 134.35749 | 41023 ft | 549 kts | 48° |
| 2026-04-30 03:01 | 31.28367 | 134.42783 | 41011 ft | 551 kts | 48° |
| 2026-04-30 03:01 | 31.33095 | 134.49807 | 41037 ft | 549 kts | 48° |
| 2026-04-30 03:02 | 31.37805 | 134.56815 | 41029 ft | 549 kts | 48° |
| 2026-04-30 03:02 | 31.42528 | 134.63854 | 41028 ft | 549 kts | 48° |
| 2026-04-30 03:03 | 31.47238 | 134.70889 | 41033 ft | 548 kts | 48° |
| 2026-04-30 03:03 | 31.54284 | 134.81433 | 41037 ft | 547 kts | 48° |
| 2026-04-30 03:04 | 31.58977 | 134.88470 | 41044 ft | 548 kts | 48° |
| 2026-04-30 03:04 | 31.63675 | 134.95529 | 41043 ft | 549 kts | 48° |
| 2026-04-30 03:05 | 31.68375 | 135.02604 | 41048 ft | 549 kts | 48° |
| 2026-04-30 03:05 | 31.73066 | 135.09664 | 41050 ft | 550 kts | 47° |
| 2026-04-30 03:06 | 31.78107 | 135.16348 | 41054 ft | 547 kts | 42° |
| 2026-04-30 03:06 | 31.83331 | 135.22887 | 41053 ft | 547 kts | 43° |
| 2026-04-30 03:07 | 31.87600 | 135.28343 | 41056 ft | 547 kts | 43° |
| 2026-04-30 03:07 | 31.92716 | 135.35005 | 41062 ft | 548 kts | 44° |
| 2026-04-30 03:08 | 31.97808 | 135.41686 | 41065 ft | 548 kts | 44° |
| 2026-04-30 03:08 | 32.02917 | 135.48398 | 41070 ft | 548 kts | 44° |
| 2026-04-30 03:09 | 32.08007 | 135.55091 | 41069 ft | 548 kts | 44° |
| 2026-04-30 03:09 | 32.13066 | 135.61754 | 41072 ft | 548 kts | 44° |
| 2026-04-30 03:10 | 32.18143 | 135.68453 | 41075 ft | 548 kts | 44° |
| 2026-04-30 03:10 | 32.23244 | 135.75195 | 41085 ft | 548 kts | 44° |
| 2026-04-30 03:11 | 32.28331 | 135.81930 | 41088 ft | 549 kts | 44° |
| 2026-04-30 03:11 | 32.33404 | 135.88661 | 41093 ft | 550 kts | 44° |
| 2026-04-30 03:12 | 32.38490 | 135.95421 | 41096 ft | 550 kts | 44° |
| 2026-04-30 03:12 | 32.43574 | 136.02193 | 41109 ft | 549 kts | 44° |
| 2026-04-30 03:13 | 32.48649 | 136.08968 | 41103 ft | 549 kts | 44° |
| 2026-04-30 03:13 | 32.53691 | 136.15686 | 41111 ft | 549 kts | 44° |
| 2026-04-30 03:14 | 32.58755 | 136.22451 | 41108 ft | 549 kts | 44° |
| 2026-04-30 03:14 | 32.63821 | 136.29235 | 41112 ft | 549 kts | 44° |
| 2026-04-30 03:15 | 32.68864 | 136.36003 | 41144 ft | 549 kts | 44° |
| 2026-04-30 03:15 | 32.73917 | 136.42796 | 41121 ft | 548 kts | 44° |
| 2026-04-30 03:16 | 32.78994 | 136.49634 | 41123 ft | 548 kts | 44° |
| 2026-04-30 03:16 | 32.84013 | 136.56406 | 41124 ft | 548 kts | 44° |
| 2026-04-30 03:17 | 32.89062 | 136.63234 | 41121 ft | 548 kts | 44° |
| 2026-04-30 03:17 | 32.94089 | 136.70053 | 41121 ft | 548 kts | 44° |
| 2026-04-30 03:18 | 32.99098 | 136.76838 | 41121 ft | 548 kts | 44° |
| 2026-04-30 03:18 | 33.04141 | 136.83674 | 41124 ft | 549 kts | 44° |
| 2026-04-30 03:19 | 33.09177 | 136.90520 | 41126 ft | 549 kts | 44° |
| 2026-04-30 03:19 | 33.14210 | 136.97380 | 41126 ft | 549 kts | 44° |
| 2026-04-30 03:20 | 33.19222 | 137.04223 | 41127 ft | 552 kts | 44° |
| 2026-04-30 03:20 | 33.24327 | 137.11201 | 41127 ft | 556 kts | 44° |
| 2026-04-30 03:21 | 33.29394 | 137.18139 | 41126 ft | 558 kts | 44° |
| 2026-04-30 03:21 | 33.34481 | 137.25139 | 41131 ft | 557 kts | 44° |
| 2026-04-30 03:22 | 33.36985 | 137.28587 | 40973 ft | 558 kts | 45° |
| 2026-04-30 03:22 | 33.39556 | 137.32129 | 40731 ft | 557 kts | 45° |
| 2026-04-30 03:22 | 33.42098 | 137.35634 | 40435 ft | 558 kts | 45° |
| 2026-04-30 03:22 | 33.44626 | 137.39122 | 40089 ft | 558 kts | 45° |
| 2026-04-30 03:23 | 33.47118 | 137.42564 | 39708 ft | 559 kts | 45° |
| 2026-04-30 03:23 | 33.49726 | 137.46168 | 39281 ft | 559 kts | 45° |
| 2026-04-30 03:23 | 33.52278 | 137.49700 | 38873 ft | 560 kts | 45° |
| 2026-04-30 03:23 | 33.54805 | 137.53200 | 38404 ft | 561 kts | 45° |
| 2026-04-30 03:24 | 33.57386 | 137.56778 | 37924 ft | 561 kts | 45° |
| 2026-04-30 03:24 | 33.59895 | 137.60327 | 37468 ft | 563 kts | 49° |
| 2026-04-30 03:24 | 33.62080 | 137.64222 | 37022 ft | 566 kts | 57° |
| 2026-04-30 03:24 | 33.64067 | 137.68318 | 36550 ft | 567 kts | 58° |
| 2026-04-30 03:25 | 33.65995 | 137.72449 | 36104 ft | 567 kts | 59° |
| 2026-04-30 03:25 | 33.67901 | 137.76619 | 35704 ft | 567 kts | 60° |
| 2026-04-30 03:25 | 33.69766 | 137.80730 | 35292 ft | 568 kts | 60° |
| 2026-04-30 03:25 | 33.71658 | 137.84906 | 34859 ft | 571 kts | 60° |
| 2026-04-30 03:26 | 33.73557 | 137.89096 | 34454 ft | 572 kts | 60° |
| 2026-04-30 03:26 | 33.75470 | 137.93309 | 34038 ft | 573 kts | 60° |
| 2026-04-30 03:26 | 33.77371 | 137.97492 | 33569 ft | 573 kts | 60° |
| 2026-04-30 03:26 | 33.79295 | 138.01725 | 33125 ft | 572 kts | 60° |
| 2026-04-30 03:27 | 33.81207 | 138.05936 | 32655 ft | 573 kts | 60° |
| 2026-04-30 03:27 | 33.83114 | 138.10138 | 32216 ft | 574 kts | 60° |
| 2026-04-30 03:27 | 33.85027 | 138.14356 | 31775 ft | 575 kts | 60° |
| 2026-04-30 03:27 | 33.86935 | 138.18571 | 31358 ft | 575 kts | 59° |
| 2026-04-30 03:28 | 33.88821 | 138.22741 | 30955 ft | 575 kts | 59° |
| 2026-04-30 03:28 | 33.90727 | 138.26962 | 30532 ft | 573 kts | 59° |
| 2026-04-30 03:28 | 33.92623 | 138.31166 | 30105 ft | 569 kts | 59° |
| 2026-04-30 03:28 | 33.94499 | 138.35358 | 29605 ft | 566 kts | 60° |
| 2026-04-30 03:29 | 33.96355 | 138.39537 | 29138 ft | 562 kts | 60° |
| 2026-04-30 03:29 | 33.98187 | 138.43671 | 28658 ft | 558 kts | 60° |
| 2026-04-30 03:29 | 33.99970 | 138.47699 | 28226 ft | 554 kts | 60° |
| 2026-04-30 03:29 | 34.01818 | 138.51874 | 27770 ft | 550 kts | 60° |
| 2026-04-30 03:30 | 34.03614 | 138.55931 | 27315 ft | 546 kts | 60° |
| 2026-04-30 03:30 | 34.05392 | 138.59949 | 26885 ft | 543 kts | 60° |
| 2026-04-30 03:30 | 34.07158 | 138.63945 | 26440 ft | 540 kts | 60° |
| 2026-04-30 03:30 | 34.08898 | 138.67885 | 26031 ft | 537 kts | 60° |
| 2026-04-30 03:31 | 34.10655 | 138.71866 | 25596 ft | 533 kts | 60° |
| 2026-04-30 03:31 | 34.12377 | 138.75775 | 25197 ft | 530 kts | 60° |
| 2026-04-30 03:31 | 34.14099 | 138.79687 | 24798 ft | 527 kts | 60° |
| 2026-04-30 03:31 | 34.15813 | 138.83586 | 24396 ft | 524 kts | 60° |
| 2026-04-30 03:32 | 34.17525 | 138.87484 | 24011 ft | 521 kts | 60° |
| 2026-04-30 03:32 | 34.19218 | 138.91346 | 23577 ft | 518 kts | 61° |
| 2026-04-30 03:32 | 34.20899 | 138.95183 | 23115 ft | 515 kts | 60° |
| 2026-04-30 03:32 | 34.22569 | 138.98991 | 22639 ft | 511 kts | 60° |
| 2026-04-30 03:33 | 34.24207 | 139.02733 | 22195 ft | 506 kts | 60° |
| 2026-04-30 03:33 | 34.25859 | 139.06520 | 21751 ft | 502 kts | 60° |
| 2026-04-30 03:33 | 34.27463 | 139.10205 | 21314 ft | 498 kts | 60° |
| 2026-04-30 03:33 | 34.28939 | 139.13961 | 20884 ft | 494 kts | 65° |
| 2026-04-30 03:34 | 34.30302 | 139.17751 | 20441 ft | 491 kts | 65° |
| 2026-04-30 03:34 | 34.31632 | 139.21569 | 20020 ft | 487 kts | 66° |
| 2026-04-30 03:34 | 34.32918 | 139.25315 | 19594 ft | 483 kts | 66° |
| 2026-04-30 03:34 | 34.34195 | 139.29053 | 19186 ft | 479 kts | 66° |
| 2026-04-30 03:35 | 34.35465 | 139.32769 | 18785 ft | 475 kts | 66° |
| 2026-04-30 03:35 | 34.36724 | 139.36449 | 18356 ft | 471 kts | 66° |
| 2026-04-30 03:35 | 34.37977 | 139.40103 | 17892 ft | 468 kts | 66° |
| 2026-04-30 03:35 | 34.39219 | 139.43725 | 17420 ft | 463 kts | 66° |
| 2026-04-30 03:36 | 34.40458 | 139.47340 | 16963 ft | 458 kts | 66° |
| 2026-04-30 03:36 | 34.41659 | 139.50847 | 16517 ft | 454 kts | 66° |
| 2026-04-30 03:36 | 34.42859 | 139.54354 | 16086 ft | 449 kts | 66° |
| 2026-04-30 03:36 | 34.44034 | 139.57791 | 15667 ft | 444 kts | 66° |
| 2026-04-30 03:37 | 34.45225 | 139.61278 | 15214 ft | 440 kts | 66° |
| 2026-04-30 03:37 | 34.46386 | 139.64685 | 14771 ft | 436 kts | 66° |
| 2026-04-30 03:37 | 34.47547 | 139.68072 | 14314 ft | 431 kts | 65° |
| 2026-04-30 03:37 | 34.48386 | 139.70022 | 14031 ft | 425 kts | 55° |
| 2026-04-30 03:38 | 34.49907 | 139.72225 | 13600 ft | 414 kts | 39° |
| 2026-04-30 03:38 | 34.52193 | 139.74227 | 13090 ft | 403 kts | 29° |
| 2026-04-30 03:38 | 34.54562 | 139.75999 | 12589 ft | 396 kts | 28° |
| 2026-04-30 03:38 | 34.56908 | 139.77733 | 12141 ft | 388 kts | 28° |
| 2026-04-30 03:39 | 34.59137 | 139.79379 | 11983 ft | 372 kts | 28° |
| 2026-04-30 03:39 | 34.61290 | 139.80970 | 11960 ft | 353 kts | 28° |
| 2026-04-30 03:39 | 34.63334 | 139.82481 | 11961 ft | 334 kts | 28° |
| 2026-04-30 03:39 | 34.65274 | 139.83914 | 11961 ft | 316 kts | 28° |
| 2026-04-30 03:40 | 34.67106 | 139.85267 | 11961 ft | 299 kts | 27° |
| 2026-04-30 03:40 | 34.68846 | 139.86554 | 11966 ft | 292 kts | 27° |
| 2026-04-30 03:40 | 34.70579 | 139.87829 | 11974 ft | 292 kts | 27° |
| 2026-04-30 03:40 | 34.72327 | 139.89113 | 11964 ft | 293 kts | 27° |
| 2026-04-30 03:41 | 34.74071 | 139.90397 | 11967 ft | 293 kts | 27° |
| 2026-04-30 03:41 | 34.75797 | 139.91667 | 11973 ft | 291 kts | 28° |
| 2026-04-30 03:41 | 34.77517 | 139.92936 | 11966 ft | 288 kts | 28° |
| 2026-04-30 03:41 | 34.79287 | 139.93941 | 11977 ft | 293 kts | 13° |
| 2026-04-30 03:42 | 34.81438 | 139.94404 | 11947 ft | 325 kts | 3° |
| 2026-04-30 03:42 | 34.83726 | 139.94681 | 11910 ft | 329 kts | 2° |
| 2026-04-30 03:42 | 34.85962 | 139.94942 | 11800 ft | 315 kts | 2° |
| 2026-04-30 03:42 | 34.88102 | 139.95180 | 11532 ft | 308 kts | 2° |
| 2026-04-30 03:43 | 34.90232 | 139.95406 | 11171 ft | 304 kts | 2° |
| 2026-04-30 03:43 | 34.92291 | 139.95631 | 10826 ft | 289 kts | 2° |
| 2026-04-30 03:43 | 34.94245 | 139.95832 | 10510 ft | 273 kts | 2° |
| 2026-04-30 03:43 | 34.96093 | 139.96016 | 10383 ft | 271 kts | 3° |
| 2026-04-30 03:44 | 34.97999 | 139.96216 | 10260 ft | 271 kts | 4° |
| 2026-04-30 03:44 | 34.99862 | 139.96406 | 10136 ft | 268 kts | 4° |
| 2026-04-30 03:44 | 35.01689 | 139.96591 | 10007 ft | 266 kts | 4° |
| 2026-04-30 03:44 | 35.03537 | 139.96780 | 9814 ft | 268 kts | 4° |
| 2026-04-30 03:45 | 35.05388 | 139.96971 | 9499 ft | 267 kts | 4° |
| 2026-04-30 03:45 | 35.07233 | 139.97165 | 9198 ft | 265 kts | 3° |
| 2026-04-30 03:45 | 35.09083 | 139.97352 | 8909 ft | 266 kts | 3° |
| 2026-04-30 03:45 | 35.10926 | 139.97539 | 8625 ft | 267 kts | 2° |
| 2026-04-30 03:46 | 35.12774 | 139.97725 | 8343 ft | 267 kts | 3° |
| 2026-04-30 03:46 | 35.14606 | 139.97912 | 8066 ft | 265 kts | 3° |
| 2026-04-30 03:46 | 35.16472 | 139.98088 | 7680 ft | 266 kts | 1° |
| 2026-04-30 03:46 | 35.18311 | 139.98145 | 7230 ft | 269 kts | 359° |
| 2026-04-30 03:47 | 35.20185 | 139.98176 | 6837 ft | 269 kts | 359° |
| 2026-04-30 03:47 | 35.22030 | 139.98212 | 6481 ft | 268 kts | 358° |
| 2026-04-30 03:47 | 35.23860 | 139.98098 | 6274 ft | 258 kts | 352° |
| 2026-04-30 03:47 | 35.25620 | 139.97704 | 6042 ft | 249 kts | 343° |
| 2026-04-30 03:48 | 35.27230 | 139.97063 | 5967 ft | 245 kts | 336° |
| 2026-04-30 03:48 | 35.28763 | 139.96181 | 5773 ft | 240 kts | 329° |
| 2026-04-30 03:48 | 35.30186 | 139.95191 | 5606 ft | 232 kts | 328° |
| 2026-04-30 03:48 | 35.31559 | 139.94225 | 5421 ft | 224 kts | 329° |
| 2026-04-30 03:49 | 35.32918 | 139.93269 | 5131 ft | 224 kts | 330° |
| 2026-04-30 03:49 | 35.34272 | 139.92317 | 4641 ft | 227 kts | 330° |
| 2026-04-30 03:49 | 35.35634 | 139.91362 | 4202 ft | 221 kts | 330° |
| 2026-04-30 03:49 | 35.36935 | 139.90439 | 3861 ft | 213 kts | 331° |
| 2026-04-30 03:50 | 35.38193 | 139.89547 | 3550 ft | 203 kts | 332° |
| 2026-04-30 03:50 | 35.39380 | 139.88707 | 3280 ft | 192 kts | 332° |
| 2026-04-30 03:50 | 35.40494 | 139.87918 | 3056 ft | 182 kts | 332° |
| 2026-04-30 03:50 | 35.41583 | 139.87145 | 2815 ft | 178 kts | 332° |
| 2026-04-30 03:51 | 35.42618 | 139.86411 | 2562 ft | 170 kts | 332° |
| 2026-04-30 03:51 | 35.43605 | 139.85710 | 2350 ft | 160 kts | 332° |
| 2026-04-30 03:51 | 35.44551 | 139.85039 | 2119 ft | 151 kts | 333° |
| 2026-04-30 03:51 | 35.45435 | 139.84412 | 1923 ft | 145 kts | 332° |
| 2026-04-30 03:52 | 35.46290 | 139.83804 | 1743 ft | 144 kts | 333° |
| 2026-04-30 03:52 | 35.47153 | 139.83192 | 1543 ft | 145 kts | 332° |
| 2026-04-30 03:52 | 35.48024 | 139.82571 | 1344 ft | 145 kts | 333° |
| 2026-04-30 03:52 | 35.48906 | 139.81942 | 1081 ft | 145 kts | 331° |
| 2026-04-30 03:53 | 35.49762 | 139.81320 | 885 ft | 143 kts | 331° |
| 2026-04-30 03:53 | 35.50620 | 139.80715 | 732 ft | 145 kts | 332° |
| 2026-04-30 03:53 | 35.51489 | 139.80097 | 506 ft | 142 kts | 332° |
| 2026-04-30 03:53 | 35.52328 | 139.79511 | 331 ft | 138 kts | 332° |
| 2026-04-30 03:54 | 35.53156 | 139.78916 | 169 ft | 138 kts | 331° |
| 2026-04-30 03:54 | 35.53977 | 139.78335 | 38 ft | 134 kts | 332° |
| 2026-04-30 03:54 | 35.54688 | 139.77832 | 35 ft | 118 kts | 329° |
| 2026-04-30 03:54 | 35.55383 | 139.77306 | 336 ft | 133 kts | 329° |
| 2026-04-30 03:55 | 35.56251 | 139.76572 | 929 ft | 167 kts | 320° |
| 2026-04-30 03:55 | 35.56688 | 139.75294 | 1320 ft | 171 kts | 263° |
| 2026-04-30 03:55 | 35.56099 | 139.74105 | 1765 ft | 167 kts | 206° |
| 2026-04-30 03:55 | 35.54982 | 139.73823 | 2217 ft | 167 kts | 171° |
| 2026-04-30 03:56 | 35.54223 | 139.73994 | 2530 ft | 169 kts | 161° |
| 2026-04-30 03:56 | 35.52661 | 139.74491 | 3120 ft | 179 kts | 162° |
| 2026-04-30 03:56 | 35.51446 | 139.74841 | 3562 ft | 187 kts | 163° |
| 2026-04-30 03:56 | 35.50168 | 139.75191 | 3996 ft | 195 kts | 165° |
| 2026-04-30 03:57 | 35.48805 | 139.75559 | 4421 ft | 207 kts | 165° |
| 2026-04-30 03:57 | 35.47857 | 139.75815 | 4709 ft | 215 kts | 166° |
| 2026-04-30 03:57 | 35.46322 | 139.76225 | 4952 ft | 235 kts | 166° |
| 2026-04-30 03:57 | 35.44715 | 139.76652 | 4979 ft | 240 kts | 166° |
| 2026-04-30 03:58 | 35.43082 | 139.77082 | 4987 ft | 239 kts | 167° |
| 2026-04-30 03:58 | 35.41447 | 139.77509 | 4993 ft | 238 kts | 166° |
| 2026-04-30 03:58 | 35.39834 | 139.77948 | 4994 ft | 238 kts | 165° |
| 2026-04-30 03:58 | 35.38231 | 139.78452 | 4996 ft | 239 kts | 164° |
| 2026-04-30 03:59 | 35.36611 | 139.78939 | 4996 ft | 238 kts | 165° |
| 2026-04-30 03:59 | 35.34999 | 139.79390 | 4994 ft | 238 kts | 166° |
| 2026-04-30 03:59 | 35.33382 | 139.79823 | 4996 ft | 237 kts | 166° |
| 2026-04-30 03:59 | 35.31767 | 139.80247 | 4995 ft | 238 kts | 167° |
| 2026-04-30 04:00 | 35.30145 | 139.80666 | 4993 ft | 239 kts | 167° |
| 2026-04-30 04:00 | 35.28520 | 139.81082 | 4993 ft | 235 kts | 166° |
| 2026-04-30 04:00 | 35.27072 | 139.81624 | 5000 ft | 226 kts | 153° |
| 2026-04-30 04:00 | 35.25765 | 139.82770 | 4999 ft | 222 kts | 130° |
| 2026-04-30 04:01 | 35.25030 | 139.84424 | 4994 ft | 225 kts | 101° |
| 2026-04-30 04:01 | 35.25178 | 139.86304 | 5000 ft | 228 kts | 66° |
| 2026-04-30 04:01 | 35.26165 | 139.87818 | 4997 ft | 232 kts | 39° |
| 2026-04-30 04:01 | 35.27463 | 139.89036 | 4988 ft | 237 kts | 37° |
| 2026-04-30 04:02 | 35.28746 | 139.90237 | 4985 ft | 226 kts | 39° |
| 2026-04-30 04:02 | 35.29960 | 139.91346 | 4994 ft | 208 kts | 33° |
| 2026-04-30 04:02 | 35.31206 | 139.92098 | 5000 ft | 196 kts | 19° |
| 2026-04-30 04:02 | 35.32546 | 139.92399 | 5009 ft | 196 kts | 2° |
| 2026-04-30 04:03 | 35.33894 | 139.92176 | 5017 ft | 197 kts | 341° |
| 2026-04-30 04:03 | 35.35172 | 139.91515 | 5041 ft | 198 kts | 329° |
| 2026-04-30 04:03 | 35.36394 | 139.90773 | 5001 ft | 199 kts | 330° |
| 2026-04-30 04:03 | 35.37612 | 139.89927 | 4994 ft | 200 kts | 326° |
| 2026-04-30 04:04 | 35.38810 | 139.89056 | 4827 ft | 201 kts | 327° |
| 2026-04-30 04:04 | 35.40015 | 139.88178 | 4260 ft | 203 kts | 328° |
| 2026-04-30 04:04 | 35.41277 | 139.87278 | 3443 ft | 218 kts | 330° |
| 2026-04-30 04:04 | 35.42604 | 139.86355 | 2830 ft | 218 kts | 330° |
| 2026-04-30 04:05 | 35.43888 | 139.85467 | 2554 ft | 202 kts | 330° |
| 2026-04-30 04:05 | 35.45085 | 139.84632 | 2186 ft | 194 kts | 330° |
| 2026-04-30 04:05 | 35.46242 | 139.83814 | 1791 ft | 190 kts | 330° |
| 2026-04-30 04:05 | 35.47359 | 139.83036 | 1545 ft | 177 kts | 330° |
| 2026-04-30 04:06 | 35.48393 | 139.82290 | 1302 ft | 168 kts | 330° |
| 2026-04-30 04:06 | 35.49372 | 139.81596 | 1065 ft | 157 kts | 330° |
| 2026-04-30 04:06 | 35.50275 | 139.80961 | 842 ft | 147 kts | 331° |
| 2026-04-30 04:06 | 35.51139 | 139.80349 | 645 ft | 140 kts | 331° |
| 2026-04-30 04:07 | 35.51974 | 139.79734 | 413 ft | 138 kts | 331° |
| 2026-04-30 04:07 | 35.52795 | 139.79139 | 262 ft | 138 kts | 329° |
| 2026-04-30 04:07 | 35.53632 | 139.78557 | 87 ft | 136 kts | 335° |
| 2026-04-30 04:08 | 35.54975 | 139.77634 | 30 ft | 66 kts | 330° |
| 2026-04-30 04:08 | 35.55222 | 139.77459 | 31 ft | 22 kts | 330° |
| 2026-04-30 04:08 | 35.55362 | 139.77380 | 31 ft | 22 kts | 342° |
| 2026-04-30 04:08 | 35.55512 | 139.77353 | 30 ft | 18 kts | 357° |
| 2026-04-30 04:09 | 35.55537 | 139.77355 | 29 ft | 1 kts | 10° |
| 2026-04-30 04:09 | 35.55573 | 139.77381 | 29 ft | 10 kts | 49° |
| 2026-04-30 04:09 | 35.55568 | 139.77455 | 29 ft | 10 kts | 125° |
| 2026-04-30 04:09 | 35.55509 | 139.77510 | 30 ft | 12 kts | 148° |
| 2026-04-30 04:10 | 35.55430 | 139.77565 | 30 ft | 14 kts | 150° |
| 2026-04-30 04:10 | 35.55336 | 139.77631 | 30 ft | 17 kts | 149° |
| 2026-04-30 04:10 | 35.55227 | 139.77709 | 30 ft | 19 kts | 150° |
| 2026-04-30 04:10 | 35.55109 | 139.77792 | 30 ft | 21 kts | 150° |
| 2026-04-30 04:11 | 35.54984 | 139.77883 | 30 ft | 21 kts | 149° |
| 2026-04-30 04:11 | 35.54873 | 139.77962 | 30 ft | 10 kts | 148° |
| 2026-04-30 04:11 | 35.54850 | 139.77988 | 30 ft | 4 kts | 127° |
| 2026-04-30 04:11 | 35.54847 | 139.78027 | 30 ft | 5 kts | 77° |
| 2026-04-30 04:12 | 35.54871 | 139.78057 | 30 ft | 5 kts | 25° |
| 2026-04-30 04:12 | 35.54910 | 139.78054 | 30 ft | 7 kts | 347° |
| 2026-04-30 04:12 | 35.54957 | 139.78065 | 31 ft | 7 kts | 35° |
| 2026-04-30 04:12 | 35.54990 | 139.78123 | 31 ft | 9 kts | 59° |
| 2026-04-30 04:13 | 35.55005 | 139.78156 | 31 ft | 0 kts | 59° |
| 2026-04-30 04:13 | 35.55007 | 139.78160 | 31 ft | 1 kts | 59° |
| 2026-04-30 04:13 | 35.55012 | 139.78170 | 31 ft | 2 kts | 58° |
| 2026-04-30 04:13 | 35.55015 | 139.78176 | 31 ft | 0 kts | 58° |
| 2026-04-30 04:14 | 35.55008 | 139.78162 | 31 ft | 1 kts | 58° |
| 2026-04-30 04:14 | 35.55010 | 139.78165 | 31 ft | 0 kts | 58° |